createdAt,value
2023-05-07T00:01:29.635Z,81.73
2023-05-07T00:03:56.607Z,81.67
2023-05-07T00:06:23.754Z,81.97
2023-05-07T00:08:50.738Z,82.22
2023-05-07T00:11:17.465Z,82.22
2023-05-07T00:13:44.171Z,82.32
2023-05-07T00:16:10.960Z,82.37
2023-05-07T00:18:37.809Z,82.55
2023-05-07T00:21:04.662Z,82.65
2023-05-07T00:23:31.426Z,82.62
2023-05-07T00:25:58.134Z,82.78
2023-05-07T00:28:27.370Z,82.93
2023-05-07T00:30:54.100Z,82.87
2023-05-07T00:33:21.913Z,83.17
2023-05-07T00:35:48.914Z,83.09
2023-05-07T00:38:16.281Z,83.25
2023-05-07T00:40:42.936Z,83.38
2023-05-07T00:43:10.046Z,83.66
2023-05-07T00:45:36.973Z,83.83
2023-05-07T00:48:04.718Z,84.11
2023-05-07T00:50:32.273Z,84.15
2023-05-07T00:52:59.962Z,84.58
2023-05-07T00:55:27.038Z,84.57
2023-05-07T00:57:53.829Z,84.61
2023-05-07T01:00:21.008Z,84.68
2023-05-07T01:02:47.990Z,84.68
2023-05-07T01:05:17.881Z,85.04
2023-05-07T01:07:46.043Z,85.10
2023-05-07T01:10:13.769Z,85.12
2023-05-07T01:12:42.423Z,85.13
2023-05-07T01:15:10.449Z,85.29
2023-05-07T01:17:39.057Z,85.47
2023-05-07T01:20:08.158Z,85.31
2023-05-07T01:22:37.452Z,85.50
2023-05-07T01:25:05.794Z,85.42
2023-05-07T01:27:34.307Z,85.49
2023-05-07T01:30:01.315Z,85.62
2023-05-07T01:32:46.679Z,85.83
2023-05-07T01:35:21.229Z,85.63
2023-05-07T01:37:49.199Z,86.01
2023-05-07T01:40:16.215Z,85.97
2023-05-07T01:42:44.750Z,86.37
2023-05-07T01:45:11.834Z,86.14
2023-05-07T01:47:39.216Z,86.07
2023-05-07T01:50:11.152Z,86.31
2023-05-07T01:52:39.744Z,86.35
2023-05-07T01:55:07.717Z,86.58
2023-05-07T01:57:34.429Z,86.52
2023-05-07T02:00:01.186Z,86.73
2023-05-07T02:02:27.986Z,86.68
2023-05-07T02:04:54.840Z,86.72
2023-05-07T02:07:21.633Z,86.88
2023-05-07T02:09:48.421Z,87.02
2023-05-07T02:12:15.133Z,86.83
2023-05-07T02:14:41.899Z,86.68
2023-05-07T02:17:08.927Z,86.52
2023-05-07T02:19:36.426Z,86.77
2023-05-07T02:22:03.185Z,86.71
2023-05-07T02:24:29.927Z,86.82
2023-05-07T02:26:56.631Z,86.76
2023-05-07T02:29:23.343Z,86.57
2023-05-07T02:31:54.312Z,86.44
2023-05-07T02:34:21.464Z,86.67
2023-05-07T02:36:48.239Z,86.50
2023-05-07T02:39:15.297Z,86.59
2023-05-07T02:41:42.113Z,86.85
2023-05-07T02:44:08.853Z,87.00
2023-05-07T02:46:35.884Z,86.94
2023-05-07T02:49:02.568Z,86.87
2023-05-07T02:51:29.666Z,86.84
2023-05-07T02:53:56.446Z,86.85
2023-05-07T02:56:23.240Z,87.12
2023-05-07T02:58:49.962Z,87.49
2023-05-07T03:01:16.832Z,87.47
2023-05-07T03:03:43.737Z,87.62
2023-05-07T03:06:10.785Z,87.82
2023-05-07T03:08:37.825Z,88.17
2023-05-07T03:11:04.644Z,88.28
2023-05-07T03:13:31.644Z,88.07
2023-05-07T03:15:58.348Z,88.26
2023-05-07T03:18:25.118Z,88.51
2023-05-07T03:20:52.957Z,88.58
2023-05-07T03:23:19.910Z,88.64
2023-05-07T03:25:46.732Z,88.84
2023-05-07T03:28:13.432Z,89.01
2023-05-07T03:30:40.226Z,89.10
2023-05-07T03:33:06.924Z,89.11
2023-05-07T03:35:33.681Z,89.26
2023-05-07T03:38:00.526Z,89.22
2023-05-07T03:40:27.189Z,89.36
2023-05-07T03:42:54.002Z,89.27
2023-05-07T03:45:20.983Z,88.99
2023-05-07T03:47:47.704Z,89.17
2023-05-07T03:50:14.548Z,89.21
2023-05-07T03:52:41.869Z,89.04
2023-05-07T03:55:09.289Z,88.86
2023-05-07T03:57:35.964Z,88.67
2023-05-07T04:00:03.202Z,88.64
2023-05-07T04:02:29.988Z,88.32
2023-05-07T04:04:57.276Z,88.32
2023-05-07T04:07:24.025Z,88.19
2023-05-07T04:09:51.205Z,88.20
2023-05-07T04:12:17.929Z,88.12
2023-05-07T04:14:44.659Z,87.94
2023-05-07T04:17:11.887Z,88.17
2023-05-07T04:19:38.785Z,87.88
2023-05-07T04:22:05.510Z,88.05
2023-05-07T04:24:33.771Z,88.07
2023-05-07T04:27:00.772Z,87.77
2023-05-07T04:29:28.239Z,87.54
2023-05-07T04:31:56.923Z,87.68
2023-05-07T04:34:23.657Z,87.19
2023-05-07T04:36:50.693Z,87.43
2023-05-07T04:39:17.427Z,87.48
2023-05-07T04:41:44.171Z,87.60
2023-05-07T04:44:11.954Z,87.69
2023-05-07T04:46:38.761Z,87.42
2023-05-07T04:49:06.834Z,87.44
2023-05-07T04:51:33.779Z,87.10
2023-05-07T04:54:00.523Z,86.95
2023-05-07T04:56:30.228Z,87.30
2023-05-07T04:58:57.068Z,87.04
2023-05-07T05:01:23.915Z,86.86
2023-05-07T05:03:50.802Z,86.83
2023-05-07T05:06:17.625Z,86.96
2023-05-07T05:08:44.600Z,86.78
2023-05-07T05:11:11.636Z,86.60
2023-05-07T05:13:38.407Z,86.58
2023-05-07T05:16:05.514Z,86.52
2023-05-07T05:18:32.313Z,86.90
2023-05-07T05:20:59.040Z,86.84
2023-05-07T05:23:25.764Z,87.06
2023-05-07T05:25:57.549Z,86.97
2023-05-07T05:28:24.762Z,87.09
2023-05-07T05:30:51.804Z,86.94
2023-05-07T05:33:18.537Z,87.20
2023-05-07T05:35:45.264Z,87.38
2023-05-07T05:38:12.128Z,87.89
2023-05-07T05:40:38.855Z,87.93
2023-05-07T05:43:05.553Z,88.02
2023-05-07T05:45:32.322Z,87.96
2023-05-07T05:47:59.128Z,87.88
2023-05-07T05:50:26.068Z,87.43
2023-05-07T05:52:52.835Z,87.43
2023-05-07T05:55:19.779Z,87.27
2023-05-07T05:57:47.174Z,87.12
2023-05-07T06:00:14.553Z,87.13
2023-05-07T06:02:41.673Z,87.31
2023-05-07T06:05:08.956Z,87.43
2023-05-07T06:07:35.926Z,87.52
2023-05-07T06:10:03.166Z,87.56
2023-05-07T06:12:30.225Z,87.85
2023-05-07T06:14:56.966Z,87.63
2023-05-07T06:17:23.716Z,87.68
2023-05-07T06:19:50.665Z,87.56
2023-05-07T06:22:17.448Z,87.66
2023-05-07T06:24:44.289Z,87.53
2023-05-07T06:27:11.056Z,87.45
2023-05-07T06:29:38.257Z,87.54
2023-05-07T06:32:12.646Z,87.55
2023-05-07T06:34:40.345Z,87.31
2023-05-07T06:37:07.270Z,87.25
2023-05-07T06:39:34.619Z,86.77
2023-05-07T06:42:02.787Z,86.54
2023-05-07T06:44:29.653Z,86.11
2023-05-07T06:46:56.435Z,85.94
2023-05-07T06:49:23.176Z,85.75
2023-05-07T06:51:50.089Z,85.70
2023-05-07T06:54:17.663Z,85.18
2023-05-07T06:56:44.406Z,84.96
2023-05-07T06:59:11.142Z,84.79
2023-05-07T07:01:38.714Z,84.71
2023-05-07T07:04:05.654Z,84.63
2023-05-07T07:06:32.967Z,84.54
2023-05-07T07:09:01.040Z,84.23
2023-05-07T07:11:27.757Z,84.10
2023-05-07T07:13:55.544Z,84.03
2023-05-07T07:16:23.025Z,84.04
2023-05-07T07:18:49.823Z,83.67
2023-05-07T07:21:16.496Z,83.07
2023-05-07T07:23:43.369Z,82.99
2023-05-07T07:26:10.144Z,82.80
2023-05-07T07:28:45.284Z,82.58
2023-05-07T07:31:13.021Z,82.24
2023-05-07T07:33:40.925Z,82.25
2023-05-07T07:36:08.436Z,81.87
2023-05-07T07:38:36.109Z,81.58
2023-05-07T07:41:03.606Z,81.45
2023-05-07T07:43:30.487Z,81.57
2023-05-07T07:45:57.180Z,80.94
2023-05-07T07:48:23.957Z,80.47
2023-05-07T07:50:52.295Z,79.76
2023-05-07T07:53:19.751Z,78.99
2023-05-07T07:55:46.877Z,78.76
2023-05-07T07:58:13.760Z,77.94
2023-05-07T08:00:40.703Z,78.07
2023-05-07T08:03:10.117Z,77.56
2023-05-07T08:05:37.665Z,77.36
2023-05-07T08:08:04.830Z,76.50
2023-05-07T08:10:35.303Z,76.10
2023-05-07T08:13:04.527Z,74.94
2023-05-07T08:15:31.389Z,74.22
2023-05-07T08:18:01.155Z,73.36
2023-05-07T08:20:28.310Z,73.18
2023-05-07T08:22:55.145Z,72.83
2023-05-07T08:25:21.932Z,71.35
2023-05-07T08:27:48.800Z,70.24
2023-05-07T08:30:15.914Z,69.13
2023-05-07T08:32:42.822Z,67.91
2023-05-07T08:35:10.418Z,66.22
2023-05-07T08:37:37.176Z,64.82
2023-05-07T08:40:05.461Z,63.84
2023-05-07T08:42:37.709Z,62.68
2023-05-07T08:45:06.893Z,61.08
2023-05-07T08:47:43.539Z,60.57
2023-05-07T08:50:10.841Z,59.34
2023-05-07T08:52:38.253Z,57.43
2023-05-07T08:55:05.796Z,56.41
2023-05-07T08:57:32.742Z,55.66
2023-05-07T09:00:05.341Z,54.10
2023-05-07T09:02:32.222Z,53.10
2023-05-07T09:04:59.047Z,51.92
2023-05-07T09:07:27.257Z,50.78
2023-05-07T09:09:55.904Z,50.38
2023-05-07T09:12:23.209Z,49.46
2023-05-07T09:14:51.035Z,49.34
2023-05-07T09:17:18.155Z,48.47
2023-05-07T09:19:49.234Z,48.13
2023-05-07T09:22:16.031Z,47.84
2023-05-07T09:24:49.221Z,48.90
2023-05-07T09:27:16.246Z,48.36
2023-05-07T09:29:44.231Z,49.42
2023-05-07T09:32:11.251Z,50.42
2023-05-07T09:34:38.119Z,51.21
2023-05-07T09:37:06.061Z,52.38
2023-05-07T09:39:49.094Z,53.71
2023-05-07T09:42:16.204Z,53.77
2023-05-07T09:44:45.393Z,54.09
2023-05-07T09:47:18.765Z,53.04
2023-05-07T09:49:49.129Z,51.62
2023-05-07T09:52:17.213Z,52.02
2023-05-07T09:54:45.225Z,52.80
2023-05-07T09:57:15.893Z,53.39
2023-05-07T09:59:44.966Z,54.67
2023-05-07T10:02:13.745Z,55.55
2023-05-07T10:04:41.603Z,56.34
2023-05-07T10:07:10.088Z,56.77
2023-05-07T10:09:39.586Z,56.93
2023-05-07T10:12:07.621Z,57.15
2023-05-07T10:14:35.054Z,57.66
2023-05-07T10:17:03.689Z,58.27
2023-05-07T10:19:30.926Z,57.56
2023-05-07T10:22:04.058Z,55.87
2023-05-07T10:24:40.748Z,54.91
2023-05-07T10:27:11.708Z,53.73
2023-05-07T10:29:50.729Z,53.28
2023-05-07T10:32:29.783Z,52.74
2023-05-07T10:35:00.166Z,52.12
2023-05-07T10:37:27.531Z,51.69
2023-05-07T10:39:54.486Z,51.41
2023-05-07T10:42:21.334Z,51.77
2023-05-07T10:44:48.076Z,51.88
2023-05-07T10:47:19.480Z,52.30
2023-05-07T10:49:46.537Z,52.91
2023-05-07T10:52:18.954Z,53.68
2023-05-07T10:54:47.819Z,54.09
2023-05-07T10:57:32.749Z,54.75
2023-05-07T10:59:59.589Z,54.84
2023-05-07T11:03:16.141Z,55.48
2023-05-07T11:05:43.938Z,55.48
2023-05-07T11:08:11.097Z,56.07
2023-05-07T11:10:58.360Z,56.35
2023-05-07T11:13:46.250Z,56.25
2023-05-07T11:16:28.373Z,56.97
2023-05-07T11:18:57.322Z,57.12
2023-05-07T11:21:38.416Z,56.70
2023-05-07T11:24:06.617Z,57.01
2023-05-07T11:26:51.406Z,57.07
2023-05-07T11:29:22.709Z,57.23
2023-05-07T11:31:51.173Z,57.04
2023-05-07T11:34:25.797Z,57.16
2023-05-07T11:36:53.400Z,57.45
2023-05-07T11:39:36.099Z,57.52
2023-05-07T11:42:03.545Z,57.34
2023-05-07T11:44:47.377Z,57.03
2023-05-07T11:47:23.628Z,57.19
2023-05-07T11:49:51.683Z,57.21
2023-05-07T11:52:20.414Z,57.83
2023-05-07T11:55:05.771Z,58.21
2023-05-07T11:57:34.341Z,59.01
2023-05-07T12:00:03.242Z,58.86
2023-05-07T12:02:30.166Z,59.17
2023-05-07T12:04:57.150Z,58.68
2023-05-07T12:07:26.053Z,58.03
2023-05-07T12:09:53.364Z,57.94
2023-05-07T12:12:20.108Z,57.28
2023-05-07T12:14:47.270Z,57.33
2023-05-07T12:17:15.642Z,57.34
2023-05-07T12:19:44.783Z,57.85
2023-05-07T12:22:13.160Z,58.03
2023-05-07T12:24:49.337Z,58.39
2023-05-07T12:27:18.159Z,58.56
2023-05-07T12:29:51.287Z,59.06
2023-05-07T12:32:20.679Z,58.48
2023-05-07T12:34:51.159Z,58.97
2023-05-07T12:37:23.617Z,59.73
2023-05-07T12:40:04.286Z,59.45
2023-05-07T12:42:36.268Z,59.50
2023-05-07T12:45:14.252Z,59.77
2023-05-07T12:47:46.195Z,59.82
2023-05-07T12:50:13.715Z,59.74
2023-05-07T12:52:41.574Z,59.70
2023-05-07T12:55:09.698Z,59.53
2023-05-07T12:57:41.434Z,59.00
2023-05-07T13:00:08.802Z,58.41
2023-05-07T13:02:39.023Z,58.21
2023-05-07T13:05:06.294Z,57.30
2023-05-07T13:07:33.092Z,57.28
2023-05-07T13:09:59.763Z,56.85
2023-05-07T13:12:26.479Z,56.79
2023-05-07T13:14:53.218Z,56.70
2023-05-07T13:17:20.140Z,56.14
2023-05-07T13:19:47.032Z,56.03
2023-05-07T13:22:13.871Z,55.11
2023-05-07T13:24:42.794Z,54.77
2023-05-07T13:27:09.566Z,54.17
2023-05-07T13:29:36.672Z,53.55
2023-05-07T13:32:03.602Z,53.04
2023-05-07T13:34:30.333Z,52.80
2023-05-07T13:36:57.189Z,52.63
2023-05-07T13:39:23.921Z,52.72
2023-05-07T13:41:50.836Z,52.68
2023-05-07T13:44:17.554Z,52.44
2023-05-07T13:46:44.294Z,52.27
2023-05-07T13:49:12.326Z,51.81
2023-05-07T13:51:39.089Z,51.49
2023-05-07T13:54:05.852Z,50.90
2023-05-07T13:56:33.532Z,50.25
2023-05-07T13:59:01.147Z,50.21
2023-05-07T14:01:28.819Z,50.33
2023-05-07T14:03:58.194Z,50.18
2023-05-07T14:06:25.131Z,50.28
2023-05-07T14:08:52.217Z,49.37
2023-05-07T14:11:19.024Z,49.56
2023-05-07T14:13:45.936Z,49.09
2023-05-07T14:16:13.007Z,48.74
2023-05-07T14:18:40.126Z,48.74
2023-05-07T14:21:10.986Z,48.71
2023-05-07T14:23:37.877Z,48.60
2023-05-07T14:26:04.772Z,48.01
2023-05-07T14:28:32.337Z,47.72
2023-05-07T14:30:59.321Z,47.32
2023-05-07T14:33:26.355Z,47.04
2023-05-07T14:35:53.053Z,47.27
2023-05-07T14:38:19.836Z,47.07
2023-05-07T14:40:48.980Z,47.39
2023-05-07T14:43:15.781Z,47.30
2023-05-07T14:45:42.574Z,47.32
2023-05-07T14:48:10.412Z,47.66
2023-05-07T14:50:37.234Z,47.40
2023-05-07T14:53:04.959Z,46.89
2023-05-07T14:55:33.395Z,46.89
2023-05-07T14:58:01.240Z,46.92
2023-05-07T15:00:27.993Z,47.26
2023-05-07T15:03:01.659Z,47.18
2023-05-07T15:05:28.444Z,47.59
2023-05-07T15:07:57.604Z,47.25
2023-05-07T15:10:24.548Z,47.27
2023-05-07T15:12:51.318Z,46.93
2023-05-07T15:15:18.110Z,46.84
2023-05-07T15:17:44.852Z,46.89
2023-05-07T15:20:11.752Z,47.41
2023-05-07T15:22:38.472Z,47.14
2023-05-07T15:25:05.633Z,47.24
2023-05-07T15:27:32.449Z,47.67
2023-05-07T15:29:59.936Z,48.13
2023-05-07T15:32:26.905Z,48.15
2023-05-07T15:34:53.654Z,48.10
2023-05-07T15:37:20.369Z,48.02
2023-05-07T15:39:47.168Z,47.84
2023-05-07T15:42:13.905Z,48.34
2023-05-07T15:44:40.663Z,48.47
2023-05-07T15:47:07.380Z,48.59
2023-05-07T15:49:34.045Z,48.74
2023-05-07T15:52:00.815Z,48.84
2023-05-07T15:54:27.838Z,49.41
2023-05-07T15:56:54.747Z,50.07
2023-05-07T15:59:21.888Z,50.15
2023-05-07T16:01:48.895Z,50.37
2023-05-07T16:04:15.921Z,50.91
2023-05-07T16:06:43.738Z,51.04
2023-05-07T16:09:10.522Z,51.25
2023-05-07T16:11:37.285Z,51.29
2023-05-07T16:14:04.011Z,51.44
2023-05-07T16:16:34.482Z,51.19
2023-05-07T16:19:01.606Z,51.11
2023-05-07T16:21:28.462Z,51.32
2023-05-07T16:23:55.338Z,51.45
2023-05-07T16:26:22.073Z,51.35
2023-05-07T16:28:48.860Z,51.69
2023-05-07T16:31:15.630Z,52.33
2023-05-07T16:33:42.450Z,52.18
2023-05-07T16:36:09.190Z,52.31
2023-05-07T16:38:35.957Z,52.95
2023-05-07T16:41:02.759Z,52.92
2023-05-07T16:43:29.470Z,53.37
2023-05-07T16:45:56.327Z,52.88
2023-05-07T16:48:23.445Z,53.34
2023-05-07T16:50:50.200Z,53.54
2023-05-07T16:53:17.022Z,53.98
2023-05-07T16:55:43.893Z,53.55
2023-05-07T16:58:12.021Z,54.05
2023-05-07T17:00:50.052Z,53.96
2023-05-07T17:03:18.971Z,54.15
2023-05-07T17:05:46.383Z,54.64
2023-05-07T17:08:14.339Z,54.69
2023-05-07T17:10:42.219Z,54.81
2023-05-07T17:13:09.065Z,54.30
2023-05-07T17:15:35.867Z,54.72
2023-05-07T17:18:02.869Z,54.95
2023-05-07T17:20:29.841Z,55.40
2023-05-07T17:22:56.801Z,55.75
2023-05-07T17:25:24.251Z,56.57
2023-05-07T17:27:51.468Z,57.22
2023-05-07T17:30:19.193Z,57.34
2023-05-07T17:32:46.054Z,57.96
2023-05-07T17:35:13.021Z,58.85
2023-05-07T17:37:40.523Z,59.31
2023-05-07T17:40:07.927Z,59.68
2023-05-07T17:42:34.643Z,59.92
2023-05-07T17:45:01.406Z,60.89
2023-05-07T17:47:28.204Z,60.77
2023-05-07T17:49:55.218Z,60.71
2023-05-07T17:52:24.343Z,61.16
2023-05-07T17:54:51.079Z,61.39
2023-05-07T17:57:21.339Z,62.10
2023-05-07T17:59:48.052Z,62.27
2023-05-07T18:02:14.868Z,62.45
2023-05-07T18:04:41.637Z,62.03
2023-05-07T18:07:08.577Z,62.52
2023-05-07T18:09:35.454Z,62.44
2023-05-07T18:12:02.241Z,61.80
2023-05-07T18:14:29.413Z,61.72
2023-05-07T18:16:56.224Z,61.66
2023-05-07T18:19:22.946Z,61.75
2023-05-07T18:21:49.720Z,61.52
2023-05-07T18:24:17.672Z,61.65
2023-05-07T18:26:44.401Z,61.39
2023-05-07T18:29:11.224Z,61.14
2023-05-07T18:31:39.632Z,61.53
2023-05-07T18:34:06.688Z,61.88
2023-05-07T18:36:33.447Z,62.06
2023-05-07T18:39:01.447Z,62.17
2023-05-07T18:41:28.229Z,62.28
2023-05-07T18:43:54.937Z,62.43
2023-05-07T18:46:22.083Z,62.32
2023-05-07T18:48:48.937Z,62.29
2023-05-07T18:51:15.831Z,62.33
2023-05-07T18:53:42.621Z,62.38
2023-05-07T18:56:09.538Z,62.51
2023-05-07T18:58:36.307Z,62.65
2023-05-07T19:01:08.130Z,63.08
2023-05-07T19:03:38.043Z,63.33
2023-05-07T19:06:06.023Z,63.53
2023-05-07T19:08:33.128Z,63.63
2023-05-07T19:10:59.986Z,64.10
2023-05-07T19:13:27.721Z,64.16
2023-05-07T19:15:55.162Z,64.08
2023-05-07T19:18:22.212Z,64.05
2023-05-07T19:20:51.981Z,64.35
2023-05-07T19:23:21.354Z,64.43
2023-05-07T19:25:48.196Z,64.54
2023-05-07T19:28:14.901Z,64.43
2023-05-07T19:30:41.604Z,64.42
2023-05-07T19:33:08.475Z,64.45
2023-05-07T19:35:36.997Z,64.65
2023-05-07T19:38:03.898Z,64.49
2023-05-07T19:40:32.944Z,64.56
2023-05-07T19:43:00.608Z,64.47
2023-05-07T19:45:27.534Z,64.63
2023-05-07T19:47:54.444Z,64.67
2023-05-07T19:50:23.669Z,64.69
2023-05-07T19:52:50.581Z,64.63
2023-05-07T19:55:17.358Z,64.67
2023-05-07T19:57:49.935Z,64.94
2023-05-07T20:00:17.343Z,64.92
2023-05-07T20:02:44.435Z,64.97
2023-05-07T20:05:11.481Z,64.78
2023-05-07T20:07:38.202Z,65.11
2023-05-07T20:10:05.432Z,65.14
2023-05-07T20:12:32.575Z,65.38
2023-05-07T20:14:59.472Z,65.33
2023-05-07T20:17:26.231Z,65.50
2023-05-07T20:19:56.859Z,65.43
2023-05-07T20:22:23.993Z,65.71
2023-05-07T20:24:50.828Z,65.80
2023-05-07T20:27:19.782Z,65.86
2023-05-07T20:29:46.963Z,65.93
2023-05-07T20:32:22.263Z,66.33
2023-05-07T20:34:48.998Z,66.19
2023-05-07T20:37:15.926Z,66.24
2023-05-07T20:39:43.447Z,66.41
2023-05-07T20:42:10.449Z,66.47
2023-05-07T20:44:37.217Z,66.58
2023-05-07T20:47:04.361Z,66.85
2023-05-07T20:49:31.089Z,67.28
2023-05-07T20:51:58.065Z,67.48
2023-05-07T20:54:28.083Z,67.70
2023-05-07T20:56:57.006Z,68.00
2023-05-07T20:59:24.697Z,68.04
2023-05-07T21:01:51.815Z,68.14
2023-05-07T21:04:18.703Z,68.21
2023-05-07T21:06:45.560Z,68.34
2023-05-07T21:09:12.304Z,68.98
2023-05-07T21:11:39.171Z,69.52
2023-05-07T21:14:05.967Z,70.20
2023-05-07T21:16:33.119Z,70.69
2023-05-07T21:18:59.957Z,71.19
2023-05-07T21:21:26.688Z,71.73
2023-05-07T21:23:53.616Z,72.35
2023-05-07T21:26:21.841Z,72.87
2023-05-07T21:28:48.603Z,73.28
2023-05-07T21:31:15.541Z,73.79
2023-05-07T21:33:44.080Z,74.05
2023-05-07T21:36:11.707Z,74.86
2023-05-07T21:38:39.387Z,75.04
2023-05-07T21:41:06.843Z,75.75
2023-05-07T21:43:33.710Z,75.83
2023-05-07T21:46:00.843Z,76.37
2023-05-07T21:48:27.658Z,76.80
2023-05-07T21:51:06.031Z,77.36
2023-05-07T21:53:33.716Z,77.60
2023-05-07T21:56:01.610Z,77.91
2023-05-07T21:58:29.210Z,78.54
2023-05-07T22:00:55.939Z,78.72
2023-05-07T22:03:23.016Z,79.00
2023-05-07T22:05:50.801Z,79.17
2023-05-07T22:08:17.612Z,79.39
2023-05-07T22:10:44.661Z,79.81
2023-05-07T22:13:11.487Z,80.17
2023-05-07T22:15:53.168Z,80.39
2023-05-07T22:18:23.849Z,80.78
2023-05-07T22:20:53.972Z,81.08
2023-05-07T22:23:20.814Z,81.45
2023-05-07T22:25:47.661Z,81.55
2023-05-07T22:28:14.414Z,81.97
2023-05-07T22:30:41.337Z,82.25
2023-05-07T22:33:08.152Z,82.46
2023-05-07T22:35:34.997Z,83.11
2023-05-07T22:38:01.877Z,83.42
2023-05-07T22:40:28.612Z,83.80
2023-05-07T22:42:55.430Z,83.85
2023-05-07T22:45:22.467Z,83.77
2023-05-07T22:47:49.254Z,84.11
2023-05-07T22:50:16.215Z,84.11
2023-05-07T22:52:43.312Z,84.38
2023-05-07T22:55:10.305Z,84.67
2023-05-07T22:57:37.009Z,84.94
2023-05-07T23:00:04.648Z,85.15
2023-05-07T23:02:32.706Z,85.12
2023-05-07T23:05:01.061Z,85.40
2023-05-07T23:07:28.251Z,85.53
2023-05-07T23:09:55.022Z,85.70
2023-05-07T23:12:21.742Z,85.92
2023-05-07T23:14:48.482Z,85.98
2023-05-07T23:17:15.323Z,86.13
2023-05-07T23:19:42.421Z,86.16
2023-05-07T23:22:10.502Z,86.41
2023-05-07T23:24:37.461Z,86.61
2023-05-07T23:27:07.943Z,87.00
2023-05-07T23:29:35.367Z,87.22
2023-05-07T23:32:02.488Z,87.34
2023-05-07T23:34:30.051Z,87.35
2023-05-07T23:36:56.771Z,87.29
2023-05-07T23:39:23.515Z,87.70
2023-05-07T23:41:50.333Z,87.89
2023-05-07T23:44:17.344Z,87.98
2023-05-07T23:46:44.886Z,88.12
2023-05-07T23:49:12.235Z,88.07
2023-05-07T23:51:39.057Z,88.39
2023-05-07T23:54:06.736Z,88.62
2023-05-07T23:56:33.835Z,88.69
2023-05-07T23:59:00.665Z,88.82
